sensor_id;sensor_type;location;lat;lon;timestamp;P1;durP1;ratioP1;P2;durP2;ratioP2
13731;SDS011;6937;56.096;12.664;2023-08-17T00:01:57;3.72;;;1.20;;
13731;SDS011;6937;56.096;12.664;2023-08-17T00:04:22;2.63;;;1.17;;
13731;SDS011;6937;56.096;12.664;2023-08-17T00:06:48;2.70;;;1.35;;
13731;SDS011;6937;56.096;12.664;2023-08-17T00:09:13;2.53;;;1.08;;
13731;SDS011;6937;56.096;12.664;2023-08-17T00:11:38;5.35;;;1.23;;
13731;SDS011;6937;56.096;12.664;2023-08-17T00:14:04;3.00;;;1.45;;
13731;SDS011;6937;56.096;12.664;2023-08-17T00:16:30;3.63;;;1.08;;
13731;SDS011;6937;56.096;12.664;2023-08-17T00:18:56;4.18;;;1.20;;
13731;SDS011;6937;56.096;12.664;2023-08-17T00:21:21;1.63;;;0.93;;
13731;SDS011;6937;56.096;12.664;2023-08-17T00:23:47;2.65;;;0.98;;
13731;SDS011;6937;56.096;12.664;2023-08-17T00:26:12;2.83;;;1.00;;
13731;SDS011;6937;56.096;12.664;2023-08-17T00:28:39;4.40;;;1.30;;
13731;SDS011;6937;56.096;12.664;2023-08-17T00:31:04;3.45;;;1.60;;
13731;SDS011;6937;56.096;12.664;2023-08-17T00:33:30;3.22;;;1.17;;
13731;SDS011;6937;56.096;12.664;2023-08-17T00:35:55;4.85;;;1.20;;
13731;SDS011;6937;56.096;12.664;2023-08-17T00:38:20;3.08;;;1.05;;
13731;SDS011;6937;56.096;12.664;2023-08-17T00:40:46;3.78;;;1.20;;
13731;SDS011;6937;56.096;12.664;2023-08-17T00:43:12;4.07;;;1.42;;
13731;SDS011;6937;56.096;12.664;2023-08-17T00:45:37;3.78;;;1.38;;
13731;SDS011;6937;56.096;12.664;2023-08-17T00:48:03;4.57;;;0.80;;
13731;SDS011;6937;56.096;12.664;2023-08-17T00:50:32;3.58;;;1.08;;
13731;SDS011;6937;56.096;12.664;2023-08-17T00:52:59;4.25;;;0.82;;
13731;SDS011;6937;56.096;12.664;2023-08-17T00:55:25;1.55;;;0.95;;
13731;SDS011;6937;56.096;12.664;2023-08-17T00:57:51;2.70;;;1.00;;
13731;SDS011;6937;56.096;12.664;2023-08-17T01:00:18;1.48;;;0.98;;
13731;SDS011;6937;56.096;12.664;2023-08-17T01:02:43;3.05;;;0.95;;
13731;SDS011;6937;56.096;12.664;2023-08-17T01:05:09;2.50;;;1.00;;
13731;SDS011;6937;56.096;12.664;2023-08-17T01:07:35;2.25;;;1.20;;
13731;SDS011;6937;56.096;12.664;2023-08-17T01:10:01;0.82;;;0.82;;
13731;SDS011;6937;56.096;12.664;2023-08-17T01:12:31;3.67;;;1.08;;
13731;SDS011;6937;56.096;12.664;2023-08-17T01:15:10;1.70;;;0.75;;
13731;SDS011;6937;56.096;12.664;2023-08-17T01:17:46;2.30;;;0.80;;
13731;SDS011;6937;56.096;12.664;2023-08-17T01:20:17;2.47;;;0.82;;
13731;SDS011;6937;56.096;12.664;2023-08-17T01:22:45;2.40;;;0.85;;
13731;SDS011;6937;56.096;12.664;2023-08-17T01:25:13;1.98;;;1.10;;
13731;SDS011;6937;56.096;12.664;2023-08-17T01:27:40;2.67;;;1.00;;
13731;SDS011;6937;56.096;12.664;2023-08-17T01:30:09;2.50;;;1.13;;
13731;SDS011;6937;56.096;12.664;2023-08-17T01:32:38;1.55;;;0.80;;
13731;SDS011;6937;56.096;12.664;2023-08-17T01:35:15;3.55;;;1.00;;
13731;SDS011;6937;56.096;12.664;2023-08-17T01:37:47;3.35;;;1.00;;
13731;SDS011;6937;56.096;12.664;2023-08-17T01:40:15;3.35;;;0.90;;
13731;SDS011;6937;56.096;12.664;2023-08-17T01:42:41;2.33;;;0.70;;
13731;SDS011;6937;56.096;12.664;2023-08-17T01:45:08;3.00;;;1.08;;
13731;SDS011;6937;56.096;12.664;2023-08-17T01:47:34;2.05;;;0.85;;
13731;SDS011;6937;56.096;12.664;2023-08-17T01:50:00;2.85;;;0.88;;
13731;SDS011;6937;56.096;12.664;2023-08-17T01:52:29;2.97;;;1.10;;
13731;SDS011;6937;56.096;12.664;2023-08-17T01:54:54;1.40;;;0.80;;
13731;SDS011;6937;56.096;12.664;2023-08-17T01:57:20;4.03;;;0.90;;
13731;SDS011;6937;56.096;12.664;2023-08-17T01:59:45;2.63;;;0.80;;
13731;SDS011;6937;56.096;12.664;2023-08-17T02:02:11;2.03;;;0.88;;
13731;SDS011;6937;56.096;12.664;2023-08-17T02:04:39;1.67;;;0.80;;
13731;SDS011;6937;56.096;12.664;2023-08-17T02:07:05;1.92;;;0.90;;
13731;SDS011;6937;56.096;12.664;2023-08-17T02:09:30;2.33;;;0.90;;
13731;SDS011;6937;56.096;12.664;2023-08-17T02:11:55;1.77;;;0.75;;
13731;SDS011;6937;56.096;12.664;2023-08-17T02:14:21;2.03;;;0.70;;
13731;SDS011;6937;56.096;12.664;2023-08-17T02:16:46;2.42;;;0.88;;
13731;SDS011;6937;56.096;12.664;2023-08-17T02:19:11;2.70;;;0.70;;
13731;SDS011;6937;56.096;12.664;2023-08-17T02:21:37;3.28;;;0.90;;
13731;SDS011;6937;56.096;12.664;2023-08-17T02:24:02;1.17;;;0.70;;
13731;SDS011;6937;56.096;12.664;2023-08-17T02:26:29;3.30;;;0.93;;
13731;SDS011;6937;56.096;12.664;2023-08-17T02:28:55;2.00;;;0.73;;
13731;SDS011;6937;56.096;12.664;2023-08-17T02:31:20;3.53;;;0.80;;
13731;SDS011;6937;56.096;12.664;2023-08-17T02:33:45;1.73;;;0.80;;
13731;SDS011;6937;56.096;12.664;2023-08-17T02:36:11;2.30;;;0.77;;
13731;SDS011;6937;56.096;12.664;2023-08-17T02:38:36;2.25;;;0.73;;
13731;SDS011;6937;56.096;12.664;2023-08-17T02:41:01;2.83;;;0.88;;
13731;SDS011;6937;56.096;12.664;2023-08-17T02:43:27;0.65;;;0.60;;
13731;SDS011;6937;56.096;12.664;2023-08-17T02:45:53;1.58;;;0.57;;
13731;SDS011;6937;56.096;12.664;2023-08-17T02:48:18;0.57;;;0.52;;
13731;SDS011;6937;56.096;12.664;2023-08-17T02:50:44;1.00;;;0.60;;
13731;SDS011;6937;56.096;12.664;2023-08-17T02:53:09;1.40;;;0.70;;
13731;SDS011;6937;56.096;12.664;2023-08-17T02:55:35;1.08;;;0.60;;
13731;SDS011;6937;56.096;12.664;2023-08-17T02:58:00;2.58;;;0.80;;
13731;SDS011;6937;56.096;12.664;2023-08-17T03:00:25;1.08;;;0.70;;
13731;SDS011;6937;56.096;12.664;2023-08-17T03:02:51;1.83;;;0.80;;
13731;SDS011;6937;56.096;12.664;2023-08-17T03:05:17;1.63;;;0.80;;
13731;SDS011;6937;56.096;12.664;2023-08-17T03:07:43;3.35;;;0.68;;
13731;SDS011;6937;56.096;12.664;2023-08-17T03:10:08;2.50;;;0.90;;
13731;SDS011;6937;56.096;12.664;2023-08-17T03:12:34;3.63;;;0.80;;
13731;SDS011;6937;56.096;12.664;2023-08-17T03:15:00;2.20;;;0.60;;
13731;SDS011;6937;56.096;12.664;2023-08-17T03:17:25;2.63;;;0.90;;
13731;SDS011;6937;56.096;12.664;2023-08-17T03:19:50;2.50;;;0.60;;
13731;SDS011;6937;56.096;12.664;2023-08-17T03:22:16;1.98;;;0.80;;
13731;SDS011;6937;56.096;12.664;2023-08-17T03:24:41;2.13;;;0.80;;
13731;SDS011;6937;56.096;12.664;2023-08-17T03:27:06;1.55;;;0.60;;
13731;SDS011;6937;56.096;12.664;2023-08-17T03:29:32;1.85;;;0.88;;
13731;SDS011;6937;56.096;12.664;2023-08-17T03:31:57;1.10;;;0.68;;
13731;SDS011;6937;56.096;12.664;2023-08-17T03:34:22;1.73;;;0.80;;
13731;SDS011;6937;56.096;12.664;2023-08-17T03:36:48;1.45;;;0.50;;
13731;SDS011;6937;56.096;12.664;2023-08-17T03:39:13;2.17;;;0.70;;
13731;SDS011;6937;56.096;12.664;2023-08-17T03:41:39;1.88;;;0.68;;
13731;SDS011;6937;56.096;12.664;2023-08-17T03:44:05;3.35;;;0.90;;
13731;SDS011;6937;56.096;12.664;2023-08-17T03:46:31;1.15;;;0.50;;
13731;SDS011;6937;56.096;12.664;2023-08-17T03:48:56;1.98;;;0.70;;
13731;SDS011;6937;56.096;12.664;2023-08-17T03:51:21;2.05;;;0.80;;
13731;SDS011;6937;56.096;12.664;2023-08-17T03:53:47;1.45;;;0.65;;
13731;SDS011;6937;56.096;12.664;2023-08-17T03:56:12;1.70;;;0.70;;
13731;SDS011;6937;56.096;12.664;2023-08-17T03:58:37;2.53;;;0.90;;
13731;SDS011;6937;56.096;12.664;2023-08-17T04:01:03;3.17;;;0.80;;
13731;SDS011;6937;56.096;12.664;2023-08-17T04:03:30;1.85;;;0.70;;
13731;SDS011;6937;56.096;12.664;2023-08-17T04:05:56;2.63;;;0.88;;
13731;SDS011;6937;56.096;12.664;2023-08-17T04:08:21;3.35;;;0.70;;
13731;SDS011;6937;56.096;12.664;2023-08-17T04:10:46;2.30;;;1.10;;
13731;SDS011;6937;56.096;12.664;2023-08-17T04:13:12;1.92;;;0.73;;
13731;SDS011;6937;56.096;12.664;2023-08-17T04:15:37;2.38;;;0.80;;
13731;SDS011;6937;56.096;12.664;2023-08-17T04:18:02;1.38;;;0.80;;
13731;SDS011;6937;56.096;12.664;2023-08-17T04:20:28;2.13;;;1.00;;
13731;SDS011;6937;56.096;12.664;2023-08-17T04:22:53;2.55;;;1.00;;
13731;SDS011;6937;56.096;12.664;2023-08-17T04:25:19;2.28;;;1.00;;
13731;SDS011;6937;56.096;12.664;2023-08-17T04:27:44;1.95;;;0.88;;
13731;SDS011;6937;56.096;12.664;2023-08-17T04:30:10;3.33;;;1.17;;
13731;SDS011;6937;56.096;12.664;2023-08-17T04:32:36;3.13;;;1.23;;
13731;SDS011;6937;56.096;12.664;2023-08-17T04:35:01;2.95;;;1.02;;
13731;SDS011;6937;56.096;12.664;2023-08-17T04:37:27;4.18;;;1.23;;
13731;SDS011;6937;56.096;12.664;2023-08-17T04:39:52;3.17;;;1.00;;
13731;SDS011;6937;56.096;12.664;2023-08-17T04:42:17;3.67;;;1.42;;
13731;SDS011;6937;56.096;12.664;2023-08-17T04:44:45;3.10;;;1.23;;
13731;SDS011;6937;56.096;12.664;2023-08-17T04:47:10;2.30;;;1.20;;
13731;SDS011;6937;56.096;12.664;2023-08-17T04:49:35;3.05;;;1.73;;
13731;SDS011;6937;56.096;12.664;2023-08-17T04:52:01;2.13;;;1.30;;
13731;SDS011;6937;56.096;12.664;2023-08-17T04:54:27;3.75;;;1.50;;
13731;SDS011;6937;56.096;12.664;2023-08-17T04:56:53;1.33;;;1.17;;
13731;SDS011;6937;56.096;12.664;2023-08-17T04:59:18;3.08;;;1.58;;
13731;SDS011;6937;56.096;12.664;2023-08-17T05:01:43;3.47;;;1.40;;
13731;SDS011;6937;56.096;12.664;2023-08-17T05:04:09;3.92;;;1.30;;
13731;SDS011;6937;56.096;12.664;2023-08-17T05:06:34;6.30;;;1.73;;
13731;SDS011;6937;56.096;12.664;2023-08-17T05:09:00;2.92;;;1.38;;
13731;SDS011;6937;56.096;12.664;2023-08-17T05:11:25;3.05;;;1.35;;
13731;SDS011;6937;56.096;12.664;2023-08-17T05:13:50;1.88;;;1.30;;
13731;SDS011;6937;56.096;12.664;2023-08-17T05:16:16;3.53;;;1.40;;
13731;SDS011;6937;56.096;12.664;2023-08-17T05:18:41;3.08;;;1.35;;
13731;SDS011;6937;56.096;12.664;2023-08-17T05:21:06;2.92;;;1.30;;
13731;SDS011;6937;56.096;12.664;2023-08-17T05:23:32;1.92;;;1.00;;
13731;SDS011;6937;56.096;12.664;2023-08-17T05:25:57;2.60;;;1.10;;
13731;SDS011;6937;56.096;12.664;2023-08-17T05:28:23;3.05;;;1.40;;
13731;SDS011;6937;56.096;12.664;2023-08-17T05:30:49;2.50;;;1.23;;
13731;SDS011;6937;56.096;12.664;2023-08-17T05:33:14;3.30;;;1.30;;
13731;SDS011;6937;56.096;12.664;2023-08-17T05:35:40;1.83;;;1.20;;
13731;SDS011;6937;56.096;12.664;2023-08-17T05:38:07;1.60;;;1.00;;
13731;SDS011;6937;56.096;12.664;2023-08-17T05:40:33;2.42;;;1.13;;
13731;SDS011;6937;56.096;12.664;2023-08-17T05:42:58;3.22;;;1.08;;
13731;SDS011;6937;56.096;12.664;2023-08-17T05:45:23;1.30;;;1.00;;
13731;SDS011;6937;56.096;12.664;2023-08-17T05:47:49;1.67;;;1.02;;
13731;SDS011;6937;56.096;12.664;2023-08-17T05:50:14;1.42;;;1.00;;
13731;SDS011;6937;56.096;12.664;2023-08-17T05:52:40;2.63;;;0.93;;
13731;SDS011;6937;56.096;12.664;2023-08-17T05:55:06;1.70;;;0.93;;
13731;SDS011;6937;56.096;12.664;2023-08-17T05:57:32;2.00;;;1.20;;
13731;SDS011;6937;56.096;12.664;2023-08-17T05:59:57;1.50;;;1.13;;
13731;SDS011;6937;56.096;12.664;2023-08-17T06:02:22;2.40;;;1.55;;
13731;SDS011;6937;56.096;12.664;2023-08-17T06:04:48;1.55;;;0.90;;
13731;SDS011;6937;56.096;12.664;2023-08-17T06:07:13;3.45;;;1.02;;
13731;SDS011;6937;56.096;12.664;2023-08-17T06:09:39;3.13;;;1.00;;
13731;SDS011;6937;56.096;12.664;2023-08-17T06:12:04;2.30;;;1.05;;
13731;SDS011;6937;56.096;12.664;2023-08-17T06:14:30;2.25;;;0.98;;
13731;SDS011;6937;56.096;12.664;2023-08-17T06:16:55;5.63;;;1.10;;
13731;SDS011;6937;56.096;12.664;2023-08-17T06:19:20;4.03;;;0.90;;
13731;SDS011;6937;56.096;12.664;2023-08-17T06:21:46;3.22;;;1.27;;
13731;SDS011;6937;56.096;12.664;2023-08-17T06:24:11;2.15;;;0.75;;
13731;SDS011;6937;56.096;12.664;2023-08-17T06:26:36;1.15;;;0.75;;
13731;SDS011;6937;56.096;12.664;2023-08-17T06:29:02;0.88;;;0.68;;
13731;SDS011;6937;56.096;12.664;2023-08-17T06:31:27;2.85;;;1.00;;
13731;SDS011;6937;56.096;12.664;2023-08-17T06:33:53;2.50;;;0.82;;
13731;SDS011;6937;56.096;12.664;2023-08-17T06:36:19;3.85;;;0.80;;
13731;SDS011;6937;56.096;12.664;2023-08-17T06:38:45;2.28;;;0.70;;
13731;SDS011;6937;56.096;12.664;2023-08-17T06:41:10;3.20;;;0.95;;
13731;SDS011;6937;56.096;12.664;2023-08-17T06:43:36;1.48;;;0.88;;
13731;SDS011;6937;56.096;12.664;2023-08-17T06:46:01;5.07;;;0.80;;
13731;SDS011;6937;56.096;12.664;2023-08-17T06:48:27;4.95;;;0.80;;
13731;SDS011;6937;56.096;12.664;2023-08-17T06:50:53;1.90;;;0.90;;
13731;SDS011;6937;56.096;12.664;2023-08-17T06:53:18;2.38;;;0.80;;
13731;SDS011;6937;56.096;12.664;2023-08-17T06:55:43;3.42;;;1.23;;
13731;SDS011;6937;56.096;12.664;2023-08-17T06:58:09;1.80;;;0.80;;
13731;SDS011;6937;56.096;12.664;2023-08-17T07:00:34;2.80;;;1.08;;
13731;SDS011;6937;56.096;12.664;2023-08-17T07:03:00;3.05;;;1.17;;
13731;SDS011;6937;56.096;12.664;2023-08-17T07:05:26;5.32;;;1.20;;
13731;SDS011;6937;56.096;12.664;2023-08-17T07:07:51;2.22;;;0.95;;
13731;SDS011;6937;56.096;12.664;2023-08-17T07:10:18;3.67;;;1.25;;
13731;SDS011;6937;56.096;12.664;2023-08-17T07:12:43;2.88;;;1.02;;
13731;SDS011;6937;56.096;12.664;2023-08-17T07:15:09;2.60;;;1.33;;
13731;SDS011;6937;56.096;12.664;2023-08-17T07:17:35;2.42;;;1.20;;
13731;SDS011;6937;56.096;12.664;2023-08-17T07:20:02;2.70;;;1.10;;
13731;SDS011;6937;56.096;12.664;2023-08-17T07:22:29;3.58;;;1.48;;
13731;SDS011;6937;56.096;12.664;2023-08-17T07:24:54;1.85;;;1.17;;
13731;SDS011;6937;56.096;12.664;2023-08-17T07:27:19;4.28;;;1.30;;
13731;SDS011;6937;56.096;12.664;2023-08-17T07:29:45;4.22;;;1.70;;
13731;SDS011;6937;56.096;12.664;2023-08-17T07:32:10;3.60;;;1.52;;
13731;SDS011;6937;56.096;12.664;2023-08-17T07:34:36;4.32;;;1.50;;
13731;SDS011;6937;56.096;12.664;2023-08-17T07:37:01;2.60;;;1.30;;
13731;SDS011;6937;56.096;12.664;2023-08-17T07:39:28;3.15;;;1.33;;
13731;SDS011;6937;56.096;12.664;2023-08-17T07:41:54;4.15;;;1.17;;
13731;SDS011;6937;56.096;12.664;2023-08-17T07:44:19;1.75;;;1.20;;
13731;SDS011;6937;56.096;12.664;2023-08-17T07:46:44;3.53;;;1.15;;
13731;SDS011;6937;56.096;12.664;2023-08-17T07:49:10;4.00;;;1.25;;
13731;SDS011;6937;56.096;12.664;2023-08-17T07:51:35;2.88;;;1.10;;
13731;SDS011;6937;56.096;12.664;2023-08-17T07:54:01;2.92;;;1.10;;
13731;SDS011;6937;56.096;12.664;2023-08-17T07:56:26;2.40;;;0.95;;
13731;SDS011;6937;56.096;12.664;2023-08-17T07:58:53;2.60;;;1.27;;
13731;SDS011;6937;56.096;12.664;2023-08-17T08:01:18;3.30;;;1.35;;
13731;SDS011;6937;56.096;12.664;2023-08-17T08:03:44;2.88;;;1.30;;
13731;SDS011;6937;56.096;12.664;2023-08-17T08:06:09;2.67;;;1.13;;
13731;SDS011;6937;56.096;12.664;2023-08-17T08:08:34;3.17;;;1.10;;
13731;SDS011;6937;56.096;12.664;2023-08-17T08:11:00;3.92;;;1.48;;
13731;SDS011;6937;56.096;12.664;2023-08-17T08:13:25;3.60;;;1.17;;
13731;SDS011;6937;56.096;12.664;2023-08-17T08:15:50;2.55;;;1.08;;
13731;SDS011;6937;56.096;12.664;2023-08-17T08:18:16;3.47;;;1.40;;
13731;SDS011;6937;56.096;12.664;2023-08-17T08:20:41;2.55;;;1.13;;
13731;SDS011;6937;56.096;12.664;2023-08-17T08:23:06;3.55;;;1.70;;
13731;SDS011;6937;56.096;12.664;2023-08-17T08:25:32;3.13;;;1.23;;
13731;SDS011;6937;56.096;12.664;2023-08-17T08:27:57;3.25;;;1.50;;
13731;SDS011;6937;56.096;12.664;2023-08-17T08:30:22;2.75;;;1.20;;
13731;SDS011;6937;56.096;12.664;2023-08-17T08:32:48;3.53;;;1.00;;
13731;SDS011;6937;56.096;12.664;2023-08-17T08:35:13;5.18;;;1.27;;
13731;SDS011;6937;56.096;12.664;2023-08-17T08:37:38;2.85;;;1.20;;
13731;SDS011;6937;56.096;12.664;2023-08-17T08:40:04;2.22;;;1.00;;
13731;SDS011;6937;56.096;12.664;2023-08-17T08:42:36;3.28;;;1.00;;
13731;SDS011;6937;56.096;12.664;2023-08-17T08:45:01;2.92;;;1.05;;
13731;SDS011;6937;56.096;12.664;2023-08-17T08:47:27;1.73;;;1.00;;
13731;SDS011;6937;56.096;12.664;2023-08-17T08:49:59;2.28;;;1.00;;
13731;SDS011;6937;56.096;12.664;2023-08-17T08:52:28;1.60;;;0.90;;
13731;SDS011;6937;56.096;12.664;2023-08-17T08:54:58;2.15;;;1.02;;
13731;SDS011;6937;56.096;12.664;2023-08-17T08:57:36;2.20;;;1.08;;
13731;SDS011;6937;56.096;12.664;2023-08-17T09:00:02;2.63;;;0.95;;
13731;SDS011;6937;56.096;12.664;2023-08-17T09:02:28;2.33;;;0.98;;
13731;SDS011;6937;56.096;12.664;2023-08-17T09:04:55;1.95;;;0.80;;
13731;SDS011;6937;56.096;12.664;2023-08-17T09:07:21;1.85;;;1.00;;
13731;SDS011;6937;56.096;12.664;2023-08-17T09:09:47;1.55;;;0.90;;
13731;SDS011;6937;56.096;12.664;2023-08-17T09:12:13;5.53;;;1.58;;
13731;SDS011;6937;56.096;12.664;2023-08-17T09:14:38;2.22;;;1.10;;
13731;SDS011;6937;56.096;12.664;2023-08-17T09:17:05;2.28;;;1.50;;
13731;SDS011;6937;56.096;12.664;2023-08-17T09:19:32;2.40;;;1.20;;
13731;SDS011;6937;56.096;12.664;2023-08-17T09:21:58;2.22;;;1.10;;
13731;SDS011;6937;56.096;12.664;2023-08-17T09:24:24;2.03;;;1.00;;
13731;SDS011;6937;56.096;12.664;2023-08-17T09:26:49;2.30;;;1.10;;
13731;SDS011;6937;56.096;12.664;2023-08-17T09:29:18;2.97;;;1.17;;
13731;SDS011;6937;56.096;12.664;2023-08-17T09:31:45;2.13;;;1.05;;
13731;SDS011;6937;56.096;12.664;2023-08-17T09:34:10;1.77;;;1.05;;
13731;SDS011;6937;56.096;12.664;2023-08-17T09:36:35;3.05;;;1.35;;
13731;SDS011;6937;56.096;12.664;2023-08-17T09:39:01;2.10;;;1.05;;
13731;SDS011;6937;56.096;12.664;2023-08-17T09:41:28;2.55;;;1.20;;
13731;SDS011;6937;56.096;12.664;2023-08-17T09:43:57;3.15;;;1.10;;
13731;SDS011;6937;56.096;12.664;2023-08-17T09:46:22;1.85;;;0.95;;
13731;SDS011;6937;56.096;12.664;2023-08-17T09:48:49;4.55;;;1.20;;
13731;SDS011;6937;56.096;12.664;2023-08-17T09:51:14;3.13;;;1.10;;
13731;SDS011;6937;56.096;12.664;2023-08-17T09:53:40;2.85;;;1.15;;
13731;SDS011;6937;56.096;12.664;2023-08-17T09:56:06;2.75;;;1.30;;
13731;SDS011;6937;56.096;12.664;2023-08-17T09:58:36;2.45;;;1.00;;
13731;SDS011;6937;56.096;12.664;2023-08-17T10:01:03;1.73;;;0.77;;
13731;SDS011;6937;56.096;12.664;2023-08-17T10:03:29;2.20;;;0.93;;
13731;SDS011;6937;56.096;12.664;2023-08-17T10:06:01;3.28;;;0.70;;
13731;SDS011;6937;56.096;12.664;2023-08-17T10:08:33;2.60;;;0.80;;
13731;SDS011;6937;56.096;12.664;2023-08-17T10:11:04;2.70;;;0.90;;
13731;SDS011;6937;56.096;12.664;2023-08-17T10:13:35;2.03;;;0.80;;
13731;SDS011;6937;56.096;12.664;2023-08-17T10:16:14;2.58;;;1.30;;
13731;SDS011;6937;56.096;12.664;2023-08-17T10:21:31;1.88;;;0.98;;
13731;SDS011;6937;56.096;12.664;2023-08-17T10:24:18;2.30;;;1.05;;
13731;SDS011;6937;56.096;12.664;2023-08-17T10:26:44;2.78;;;1.15;;
13731;SDS011;6937;56.096;12.664;2023-08-17T10:29:11;1.67;;;1.02;;
13731;SDS011;6937;56.096;12.664;2023-08-17T10:31:37;1.88;;;0.80;;
13731;SDS011;6937;56.096;12.664;2023-08-17T10:34:03;3.55;;;1.00;;
13731;SDS011;6937;56.096;12.664;2023-08-17T10:36:30;2.10;;;0.90;;
13731;SDS011;6937;56.096;12.664;2023-08-17T10:41:48;2.63;;;0.90;;
13731;SDS011;6937;56.096;12.664;2023-08-17T10:44:16;2.50;;;0.85;;
13731;SDS011;6937;56.096;12.664;2023-08-17T10:46:43;1.80;;;1.00;;
13731;SDS011;6937;56.096;12.664;2023-08-17T10:49:25;2.08;;;0.98;;
13731;SDS011;6937;56.096;12.664;2023-08-17T10:52:04;3.45;;;0.70;;
13731;SDS011;6937;56.096;12.664;2023-08-17T10:54:41;1.70;;;0.93;;
13731;SDS011;6937;56.096;12.664;2023-08-17T11:00:19;2.42;;;1.00;;
13731;SDS011;6937;56.096;12.664;2023-08-17T11:05:37;1.90;;;0.93;;
13731;SDS011;6937;56.096;12.664;2023-08-17T11:08:03;1.33;;;0.93;;
13731;SDS011;6937;56.096;12.664;2023-08-17T11:10:29;2.75;;;1.00;;
13731;SDS011;6937;56.096;12.664;2023-08-17T11:12:55;1.45;;;0.80;;
13731;SDS011;6937;56.096;12.664;2023-08-17T11:15:24;3.47;;;0.88;;
13731;SDS011;6937;56.096;12.664;2023-08-17T11:17:51;3.38;;;1.45;;
13731;SDS011;6937;56.096;12.664;2023-08-17T11:20:17;3.83;;;1.55;;
13731;SDS011;6937;56.096;12.664;2023-08-17T11:22:43;3.97;;;1.27;;
13731;SDS011;6937;56.096;12.664;2023-08-17T11:25:08;1.98;;;1.13;;
13731;SDS011;6937;56.096;12.664;2023-08-17T11:27:33;3.72;;;1.58;;
13731;SDS011;6937;56.096;12.664;2023-08-17T11:29:59;2.83;;;1.60;;
13731;SDS011;6937;56.096;12.664;2023-08-17T11:32:24;4.53;;;1.80;;
13731;SDS011;6937;56.096;12.664;2023-08-17T11:34:50;4.50;;;1.30;;
13731;SDS011;6937;56.096;12.664;2023-08-17T11:37:16;5.43;;;1.23;;
13731;SDS011;6937;56.096;12.664;2023-08-17T11:39:42;2.50;;;1.20;;
13731;SDS011;6937;56.096;12.664;2023-08-17T11:42:07;3.80;;;1.65;;
13731;SDS011;6937;56.096;12.664;2023-08-17T11:44:33;2.35;;;1.30;;
13731;SDS011;6937;56.096;12.664;2023-08-17T11:46:58;3.90;;;1.50;;
13731;SDS011;6937;56.096;12.664;2023-08-17T11:49:24;4.90;;;1.60;;
13731;SDS011;6937;56.096;12.664;2023-08-17T11:51:51;4.45;;;1.60;;
13731;SDS011;6937;56.096;12.664;2023-08-17T11:54:16;4.13;;;1.23;;
13731;SDS011;6937;56.096;12.664;2023-08-17T11:56:42;5.35;;;1.10;;
13731;SDS011;6937;56.096;12.664;2023-08-17T11:59:10;2.97;;;1.38;;
13731;SDS011;6937;56.096;12.664;2023-08-17T12:01:39;3.33;;;1.48;;
13731;SDS011;6937;56.096;12.664;2023-08-17T12:04:05;4.63;;;1.38;;
13731;SDS011;6937;56.096;12.664;2023-08-17T12:06:31;1.90;;;1.50;;
13731;SDS011;6937;56.096;12.664;2023-08-17T12:08:57;2.60;;;1.30;;
13731;SDS011;6937;56.096;12.664;2023-08-17T12:11:25;4.05;;;1.00;;
13731;SDS011;6937;56.096;12.664;2023-08-17T12:13:51;3.25;;;1.23;;
13731;SDS011;6937;56.096;12.664;2023-08-17T12:16:17;1.58;;;1.02;;
13731;SDS011;6937;56.096;12.664;2023-08-17T12:18:45;11.95;;;1.52;;
13731;SDS011;6937;56.096;12.664;2023-08-17T12:21:13;3.17;;;1.10;;
13731;SDS011;6937;56.096;12.664;2023-08-17T12:23:38;6.07;;;1.75;;
13731;SDS011;6937;56.096;12.664;2023-08-17T12:26:04;4.05;;;1.40;;
13731;SDS011;6937;56.096;12.664;2023-08-17T12:28:29;3.95;;;1.65;;
13731;SDS011;6937;56.096;12.664;2023-08-17T12:31:01;4.35;;;1.45;;
13731;SDS011;6937;56.096;12.664;2023-08-17T12:33:27;1.42;;;1.10;;
13731;SDS011;6937;56.096;12.664;2023-08-17T12:35:53;3.72;;;1.45;;
13731;SDS011;6937;56.096;12.664;2023-08-17T12:38:18;2.35;;;1.25;;
13731;SDS011;6937;56.096;12.664;2023-08-17T12:40:44;1.83;;;1.33;;
13731;SDS011;6937;56.096;12.664;2023-08-17T12:43:09;2.25;;;1.20;;
13731;SDS011;6937;56.096;12.664;2023-08-17T12:45:35;5.32;;;1.77;;
13731;SDS011;6937;56.096;12.664;2023-08-17T12:48:00;4.57;;;1.48;;
13731;SDS011;6937;56.096;12.664;2023-08-17T12:50:25;2.25;;;1.35;;
13731;SDS011;6937;56.096;12.664;2023-08-17T12:52:51;5.35;;;1.10;;
13731;SDS011;6937;56.096;12.664;2023-08-17T12:55:16;5.20;;;1.20;;
13731;SDS011;6937;56.096;12.664;2023-08-17T12:57:41;6.38;;;1.30;;
13731;SDS011;6937;56.096;12.664;2023-08-17T13:00:07;6.38;;;1.35;;
13731;SDS011;6937;56.096;12.664;2023-08-17T13:02:33;2.63;;;0.77;;
13731;SDS011;6937;56.096;12.664;2023-08-17T13:04:59;2.92;;;1.02;;
13731;SDS011;6937;56.096;12.664;2023-08-17T13:07:24;2.00;;;0.98;;
13731;SDS011;6937;56.096;12.664;2023-08-17T13:09:50;3.22;;;1.10;;
13731;SDS011;6937;56.096;12.664;2023-08-17T13:12:15;3.70;;;1.20;;
13731;SDS011;6937;56.096;12.664;2023-08-17T13:14:41;3.17;;;1.10;;
13731;SDS011;6937;56.096;12.664;2023-08-17T13:17:06;3.45;;;1.08;;
13731;SDS011;6937;56.096;12.664;2023-08-17T13:19:31;1.92;;;1.02;;
13731;SDS011;6937;56.096;12.664;2023-08-17T13:21:57;3.58;;;1.00;;
13731;SDS011;6937;56.096;12.664;2023-08-17T13:24:22;4.60;;;1.17;;
13731;SDS011;6937;56.096;12.664;2023-08-17T13:26:47;3.88;;;1.00;;
13731;SDS011;6937;56.096;12.664;2023-08-17T13:29:17;3.38;;;1.10;;
13731;SDS011;6937;56.096;12.664;2023-08-17T13:31:43;3.22;;;1.00;;
13731;SDS011;6937;56.096;12.664;2023-08-17T13:34:08;2.60;;;1.20;;
13731;SDS011;6937;56.096;12.664;2023-08-17T13:36:36;1.10;;;1.00;;
13731;SDS011;6937;56.096;12.664;2023-08-17T13:39:02;2.72;;;1.35;;
13731;SDS011;6937;56.096;12.664;2023-08-17T13:41:27;2.10;;;1.10;;
13731;SDS011;6937;56.096;12.664;2023-08-17T13:43:52;3.92;;;1.05;;
13731;SDS011;6937;56.096;12.664;2023-08-17T13:46:18;3.30;;;1.20;;
13731;SDS011;6937;56.096;12.664;2023-08-17T13:48:43;1.80;;;0.80;;
13731;SDS011;6937;56.096;12.664;2023-08-17T13:51:08;3.67;;;1.15;;
13731;SDS011;6937;56.096;12.664;2023-08-17T13:53:34;1.92;;;0.80;;
13731;SDS011;6937;56.096;12.664;2023-08-17T13:55:59;2.05;;;1.10;;
13731;SDS011;6937;56.096;12.664;2023-08-17T13:58:24;2.38;;;1.10;;
13731;SDS011;6937;56.096;12.664;2023-08-17T14:00:50;2.45;;;0.85;;
13731;SDS011;6937;56.096;12.664;2023-08-17T14:03:15;1.58;;;1.00;;
13731;SDS011;6937;56.096;12.664;2023-08-17T14:05:41;2.55;;;0.80;;
13731;SDS011;6937;56.096;12.664;2023-08-17T14:08:06;2.05;;;0.95;;
13731;SDS011;6937;56.096;12.664;2023-08-17T14:10:32;3.20;;;1.05;;
13731;SDS011;6937;56.096;12.664;2023-08-17T14:13:01;2.58;;;1.40;;
13731;SDS011;6937;56.096;12.664;2023-08-17T14:15:26;2.42;;;1.45;;
13731;SDS011;6937;56.096;12.664;2023-08-17T14:17:51;1.83;;;1.10;;
13731;SDS011;6937;56.096;12.664;2023-08-17T14:20:17;2.00;;;1.20;;
13731;SDS011;6937;56.096;12.664;2023-08-17T14:22:42;3.08;;;1.30;;
13731;SDS011;6937;56.096;12.664;2023-08-17T14:25:07;3.65;;;1.25;;
13731;SDS011;6937;56.096;12.664;2023-08-17T14:27:33;2.35;;;1.35;;
13731;SDS011;6937;56.096;12.664;2023-08-17T14:29:58;3.70;;;1.30;;
13731;SDS011;6937;56.096;12.664;2023-08-17T14:32:26;3.47;;;1.17;;
13731;SDS011;6937;56.096;12.664;2023-08-17T14:34:52;3.80;;;1.45;;
13731;SDS011;6937;56.096;12.664;2023-08-17T14:37:18;1.95;;;1.25;;
13731;SDS011;6937;56.096;12.664;2023-08-17T14:39:43;3.47;;;1.15;;
13731;SDS011;6937;56.096;12.664;2023-08-17T14:42:09;5.30;;;1.80;;
13731;SDS011;6937;56.096;12.664;2023-08-17T14:44:34;3.17;;;1.20;;
13731;SDS011;6937;56.096;12.664;2023-08-17T14:46:59;3.58;;;1.50;;
13731;SDS011;6937;56.096;12.664;2023-08-17T14:49:25;3.90;;;1.23;;
13731;SDS011;6937;56.096;12.664;2023-08-17T14:51:50;2.40;;;1.23;;
13731;SDS011;6937;56.096;12.664;2023-08-17T14:54:15;2.25;;;1.30;;